CYKF

Waterloo Airport

Kitchener, Ontario, Canada
METAR CYKF 160700Z AUTO 11005KT 3SM -SN OVC004 M01/M01 A2976 RMK SLP091
Observed Flight Rules
Nov-16 @ 07:00 UTC (40 minutes ago) Instrument Flight Rules
Wind Visibility Clouds Conditions
110° at 5 knots 3 miles
  • Overcast at 400' AGL
  • Light Snow
Temperatures Readings
Current -1°C / 30°F
Dewpoint -1°C / 30°F
Humidity 100%
Altimeter 29.76" Hg
Pressure 1009.1 hPa
Elevation 317
METAR CYKF 160700Z AUTO 11005KT 3SM -SN OVC004 M01/M01 A2976 RMK SLP091
Observed Flight Rules
Nov-16 @ 07:00 UTC
(40 minutes ago)
LIFR
Wind Visibility
110° at 5 knots 3 miles
Clouds
  • Overcast at 400' AGL
Conditions
  • Light Snow
Temperature Dewpoint
-1°C / 30°F -1°C / 30°F
Humidity Altimeter Pressure
100% 29.76" Hg 1009.1 hPa